Atlas, MI (48411)

8:05 AM EDT on July 29, 2015 (GMT -0400)
Wild Oats Farm | | Change Station
CLOSE
Current Station
Personal Weather Station
Location: Goodrich, MI
Elevation: 879 ft
Nearby Weather Stations

Elev 879 ft 42.93 °N, 83.49 °W | Updated 10 seconds ago

Mostly Cloudy
Mostly Cloudy
72.0 °F
Feels Like 72.0 °F
N
5.9
Wind Variable Wind from South
Gusts 5.9 mph

Today
High -- | Low -- °F
--% Chance of Precip.
Yesterday
High -- | Low -- °F
Precip. -- in
6:21 AM 8:58 PM
Waxing Gibbous, 95% visible
Pressure 29.94 in
Visibility 9.0 miles
Clouds Few 6000 ft
Dew Point 68 °F
Humidity 89%
Rainfall 0.00 in
Snow Depth Not available.
UV 1 out of 12
Pollen 6.40 out of 12
Air Quality Not available.
Flu Activity Not available.
METAR KFNT 291153Z 16004KT 9SM FEW060 23/19 A2996 RMK AO2 SLP139 T02280194 10228 20178 50005

More Conditions Fewer Conditions

Pressure 29.94 in
Visibility 9.0 miles
Clouds Few 6000 ft
Dew Point 68 °F
Humidity 89%
Rainfall 0.00 in
Snow Depth Not available.
UV 1 out of 12
Pollen 6.40 out of 12
Air Quality Not available.
Flu Activity Not available.
METAR KFNT 291153Z 16004KT 9SM FEW060 23/19 A2996 RMK AO2 SLP139 T02280194 10228 20178 50005

More Conditions Fewer Conditions

10-Day Weather Forecast

×

Almanac

Astronomy

Jul. 29, 2015 Rise Set
Actual Time
Civil Twilight
Nautical Twilight
Astronomical Twilight
Moon
Length of Visible Light
Length of Day
Tomorrow will be .
, % of the Moon is Illuminated

Today's Extremes

State Highs State Lows

Community

WunderPhotos

Upload Photos

1,842,084 photos uploaded!

WunderBlogs® & News

Nearby

Air Quality

  Air Quality AQ Index Pollutant
Not available.

Snow Depth

Station Depth Elevation

Earthquake Activity

City Distance Mag. Time & Date
Minimum magnitude displayed is 2.5.

Coastal Water Temperatures

Place Temperature

Stations

Nearby Weather Stations

Station Location Temp. Windchill Dew Point Humidity Wind Precip. Elev Updated Type